createdAt,value
2018-10-07T00:00:57.663Z,20.99
2018-10-07T00:03:24.968Z,21.01
2018-10-07T00:08:25.743Z,20.96
2018-10-07T00:10:53.046Z,20.97
2018-10-07T00:13:20.330Z,20.86
2018-10-07T00:15:47.577Z,20.85
2018-10-07T00:18:14.877Z,20.82
2018-10-07T00:20:42.150Z,20.66
2018-10-07T00:23:09.456Z,20.78
2018-10-07T00:25:36.756Z,20.67
2018-10-07T00:28:04.082Z,20.61
2018-10-07T00:30:31.324Z,20.54
2018-10-07T00:32:58.619Z,20.54
2018-10-07T00:35:25.964Z,20.63
2018-10-07T00:37:53.249Z,20.91
2018-10-07T00:40:20.505Z,20.98
2018-10-07T00:42:47.798Z,21.29
2018-10-07T00:45:15.115Z,21.34
2018-10-07T00:47:42.407Z,21.55
2018-10-07T00:50:09.691Z,21.81
2018-10-07T00:52:37.014Z,21.81
2018-10-07T00:55:04.429Z,22.05
2018-10-07T00:57:31.772Z,21.67
2018-10-07T00:59:59.058Z,21.54
2018-10-07T01:02:26.372Z,21.38
2018-10-07T01:04:53.656Z,21.65
2018-10-07T01:07:20.936Z,21.64
2018-10-07T01:09:48.182Z,21.44
2018-10-07T01:12:15.467Z,21.67
2018-10-07T01:14:42.770Z,21.77
2018-10-07T01:17:10.140Z,21.72
2018-10-07T01:19:37.479Z,22.02
2018-10-07T01:22:04.816Z,22.01
2018-10-07T01:24:32.102Z,21.85
2018-10-07T01:26:59.389Z,21.81
2018-10-07T01:29:26.668Z,21.93
2018-10-07T01:31:53.964Z,21.72
2018-10-07T01:34:21.220Z,21.80
2018-10-07T01:36:48.556Z,21.91
2018-10-07T01:39:15.806Z,21.96
2018-10-07T01:41:43.050Z,21.90
2018-10-07T01:44:10.442Z,21.74
2018-10-07T01:46:37.703Z,21.84
2018-10-07T01:49:05.025Z,21.84
2018-10-07T01:51:32.243Z,21.96
2018-10-07T01:53:59.539Z,21.89
2018-10-07T01:56:26.814Z,21.98
2018-10-07T01:58:54.099Z,21.98
2018-10-07T02:01:21.369Z,21.95
2018-10-07T02:03:48.629Z,21.76
2018-10-07T02:06:16.017Z,21.58
2018-10-07T02:08:43.328Z,21.60
2018-10-07T02:11:10.643Z,21.30
2018-10-07T02:13:37.883Z,21.56
2018-10-07T02:16:05.133Z,21.59
2018-10-07T02:18:32.394Z,21.60
2018-10-07T02:20:59.641Z,21.70
2018-10-07T02:23:26.985Z,21.66
2018-10-07T02:25:54.301Z,21.63
2018-10-07T02:28:21.671Z,21.62
2018-10-07T02:30:48.919Z,21.59
2018-10-07T02:33:16.180Z,21.59
2018-10-07T02:35:43.494Z,21.56
2018-10-07T02:38:10.813Z,21.69
2018-10-07T02:40:40.289Z,21.67
2018-10-07T02:43:07.524Z,21.67
2018-10-07T02:45:34.850Z,21.68
2018-10-07T02:48:02.104Z,21.59
2018-10-07T02:50:29.402Z,21.43
2018-10-07T02:52:56.818Z,21.67
2018-10-07T02:55:29.102Z,21.68
2018-10-07T02:57:57.092Z,21.48
2018-10-07T03:00:24.368Z,21.41
2018-10-07T03:02:52.062Z,21.23
2018-10-07T03:05:19.360Z,21.31
2018-10-07T03:07:47.270Z,21.34
2018-10-07T03:10:14.533Z,21.37
2018-10-07T03:12:42.073Z,21.40
2018-10-07T03:15:09.423Z,21.30
2018-10-07T03:17:36.763Z,21.56
2018-10-07T03:20:04.080Z,21.16
2018-10-07T03:22:31.407Z,21.60
2018-10-07T03:24:58.768Z,21.38
2018-10-07T03:27:26.047Z,21.56
2018-10-07T03:29:53.595Z,21.49
2018-10-07T03:32:20.863Z,21.07
2018-10-07T03:34:48.131Z,21.48
2018-10-07T03:37:15.528Z,21.10
2018-10-07T03:39:42.813Z,20.83
2018-10-07T03:42:10.289Z,21.32
2018-10-07T03:44:37.588Z,21.54
2018-10-07T03:47:04.926Z,21.45
2018-10-07T03:49:32.163Z,21.29
2018-10-07T03:51:59.451Z,21.35
2018-10-07T03:54:27.109Z,21.30
2018-10-07T03:56:54.770Z,21.21
2018-10-07T03:59:22.258Z,21.23
2018-10-07T04:01:49.526Z,20.67
2018-10-07T04:04:16.839Z,21.49
2018-10-07T04:06:44.052Z,21.54
2018-10-07T04:09:12.237Z,21.20
2018-10-07T04:11:40.466Z,21.66
2018-10-07T04:14:07.941Z,21.32
2018-10-07T04:16:35.291Z,21.20
2018-10-07T04:19:02.573Z,21.62
2018-10-07T04:21:29.856Z,21.68
2018-10-07T04:23:57.127Z,21.28
2018-10-07T04:26:24.456Z,21.46
2018-10-07T04:28:51.711Z,21.34
2018-10-07T04:31:19.018Z,21.31
2018-10-07T04:33:46.303Z,21.11
2018-10-07T04:36:13.780Z,21.51
2018-10-07T04:38:41.032Z,21.06
2018-10-07T04:41:08.271Z,21.07
2018-10-07T04:43:35.527Z,21.11
2018-10-07T04:46:02.751Z,21.18
2018-10-07T04:48:30.097Z,21.26
2018-10-07T04:50:57.399Z,21.54
2018-10-07T04:53:24.839Z,21.86
2018-10-07T04:55:52.115Z,20.92
2018-10-07T04:58:25.908Z,21.07
2018-10-07T05:00:53.403Z,20.32
2018-10-07T05:03:20.809Z,20.30
2018-10-07T05:05:48.585Z,20.10
2018-10-07T05:08:15.887Z,19.92
2018-10-07T05:10:48.059Z,20.10
2018-10-07T05:13:19.039Z,19.93
2018-10-07T05:15:48.091Z,19.79
2018-10-07T05:18:15.391Z,19.68
2018-10-07T05:20:42.657Z,19.97
2018-10-07T05:23:09.988Z,19.64
2018-10-07T05:25:37.239Z,19.82
2018-10-07T05:28:04.555Z,19.47
2018-10-07T05:30:31.824Z,19.47
2018-10-07T05:32:59.249Z,19.07
2018-10-07T05:35:26.787Z,19.15
2018-10-07T05:37:54.117Z,19.00
2018-10-07T05:40:21.397Z,19.00
2018-10-07T05:42:48.661Z,18.78
2018-10-07T05:45:15.960Z,18.88
2018-10-07T05:47:43.216Z,18.77
2018-10-07T05:50:10.492Z,18.64
2018-10-07T05:52:37.756Z,19.10
2018-10-07T05:55:05.077Z,18.91
2018-10-07T05:57:32.391Z,18.52
2018-10-07T05:59:59.764Z,18.66
2018-10-07T06:02:27.536Z,18.59
2018-10-07T06:04:55.849Z,18.63
2018-10-07T06:07:23.852Z,18.68
2018-10-07T06:09:51.155Z,18.43
2018-10-07T06:12:18.445Z,18.59
2018-10-07T06:14:57.285Z,18.38
2018-10-07T06:17:24.503Z,18.25
2018-10-07T06:19:51.778Z,18.42
2018-10-07T06:22:19.019Z,17.62
2018-10-07T06:24:46.291Z,17.65
2018-10-07T06:27:13.556Z,17.77
2018-10-07T06:29:40.859Z,17.89
2018-10-07T06:32:08.174Z,17.93
2018-10-07T06:34:35.472Z,17.98
2018-10-07T06:37:02.739Z,17.88
2018-10-07T06:39:30.014Z,17.94
2018-10-07T06:41:57.269Z,17.89
2018-10-07T06:44:24.575Z,17.93
2018-10-07T06:46:51.893Z,18.01
2018-10-07T06:49:19.493Z,17.58
2018-10-07T06:51:46.759Z,17.63
2018-10-07T06:54:14.435Z,17.52
2018-10-07T06:56:41.801Z,17.32
2018-10-07T06:59:09.187Z,17.35
2018-10-07T07:01:36.463Z,17.52
2018-10-07T07:04:03.768Z,17.34
2018-10-07T07:06:31.113Z,17.62
2018-10-07T07:08:58.375Z,17.75
2018-10-07T07:11:25.686Z,17.45
2018-10-07T07:13:53.018Z,17.73
2018-10-07T07:16:20.290Z,17.89
2018-10-07T07:18:47.630Z,17.75
2018-10-07T07:21:14.970Z,17.66
2018-10-07T07:23:42.216Z,17.77
2018-10-07T07:26:09.550Z,17.49
2018-10-07T07:28:36.790Z,17.46
2018-10-07T07:31:04.090Z,17.71
2018-10-07T07:33:31.431Z,17.36
2018-10-07T07:35:58.751Z,17.11
2018-10-07T07:38:26.038Z,17.06
2018-10-07T07:40:53.572Z,17.24
2018-10-07T07:43:20.946Z,17.14
2018-10-07T07:45:48.283Z,17.07
2018-10-07T07:48:15.687Z,16.98
2018-10-07T07:50:43.036Z,16.98
2018-10-07T07:53:10.330Z,16.97
2018-10-07T07:55:37.675Z,17.29
2018-10-07T07:58:04.953Z,17.24
2018-10-07T08:00:32.325Z,16.97
2018-10-07T08:02:59.607Z,17.02
2018-10-07T08:05:26.947Z,17.06
2018-10-07T08:07:54.256Z,17.08
2018-10-07T08:10:21.536Z,17.08
2018-10-07T08:12:48.857Z,17.20
2018-10-07T08:15:16.161Z,17.18
2018-10-07T08:17:43.519Z,17.25
2018-10-07T08:20:10.831Z,17.25
2018-10-07T08:22:38.167Z,17.19
2018-10-07T08:25:05.474Z,17.22
2018-10-07T08:27:32.748Z,17.34
2018-10-07T08:30:00.035Z,17.56
2018-10-07T08:32:27.331Z,17.34
2018-10-07T08:34:54.621Z,17.10
2018-10-07T08:37:21.965Z,17.15
2018-10-07T08:39:49.263Z,17.34
2018-10-07T08:42:16.503Z,17.23
2018-10-07T08:44:43.879Z,17.53
2018-10-07T08:47:11.228Z,17.59
2018-10-07T08:49:38.633Z,17.60
2018-10-07T08:52:05.893Z,17.58
2018-10-07T08:54:33.250Z,17.88
2018-10-07T08:57:00.798Z,17.58
2018-10-07T08:59:28.137Z,17.90
2018-10-07T09:01:55.559Z,17.87
2018-10-07T09:04:23.156Z,17.66
2018-10-07T09:06:50.401Z,17.90
2018-10-07T09:09:17.683Z,18.12
2018-10-07T09:11:45.040Z,17.89
2018-10-07T09:14:12.404Z,18.31
2018-10-07T09:16:39.974Z,18.18
2018-10-07T09:19:07.374Z,18.29
2018-10-07T09:21:34.952Z,18.40
2018-10-07T09:24:02.499Z,18.80
2018-10-07T09:26:29.797Z,18.87
2018-10-07T09:28:57.177Z,18.53
2018-10-07T09:31:24.526Z,18.42
2018-10-07T09:33:51.956Z,18.32
2018-10-07T09:36:19.404Z,18.41
2018-10-07T09:38:46.757Z,18.50
2018-10-07T09:41:14.072Z,18.21
2018-10-07T09:43:41.369Z,18.32
2018-10-07T09:46:08.721Z,18.81
2018-10-07T09:48:36.055Z,18.70
2018-10-07T09:51:03.669Z,18.38
2018-10-07T09:53:31.019Z,18.95
2018-10-07T09:55:58.378Z,18.61
2018-10-07T09:58:25.735Z,19.20
2018-10-07T10:00:53.109Z,19.40
2018-10-07T10:03:20.461Z,19.32
2018-10-07T10:05:47.727Z,18.87
2018-10-07T10:08:15.031Z,18.58
2018-10-07T10:10:42.423Z,18.60
2018-10-07T10:13:10.083Z,18.67
2018-10-07T10:15:37.406Z,18.76
2018-10-07T10:18:06.134Z,18.89
2018-10-07T10:21:12.095Z,18.81
2018-10-07T10:23:49.066Z,18.73
2018-10-07T10:26:20.825Z,18.97
2018-10-07T10:28:51.617Z,19.25
2018-10-07T10:31:22.751Z,19.18
2018-10-07T10:33:55.474Z,18.98
2018-10-07T10:36:32.426Z,19.37
2018-10-07T10:39:10.142Z,19.27
2018-10-07T10:41:42.726Z,19.15
2018-10-07T10:44:17.601Z,19.27
2018-10-07T10:46:55.749Z,19.59
2018-10-07T10:51:35.847Z,19.50
2018-10-07T10:54:09.052Z,19.57
2018-10-07T10:56:39.615Z,19.74
2018-10-07T10:59:10.567Z,19.77
2018-10-07T11:02:53.670Z,20.10
2018-10-07T11:05:30.353Z,20.61
2018-10-07T11:10:07.667Z,20.92
2018-10-07T11:12:41.268Z,20.92
2018-10-07T11:15:17.139Z,20.85
2018-10-07T11:18:04.979Z,20.76
2018-10-07T11:20:56.867Z,20.98
2018-10-07T11:24:01.057Z,21.03
2018-10-07T11:26:41.361Z,21.13
2018-10-07T11:29:20.093Z,21.15
2018-10-07T11:31:55.986Z,20.84
2018-10-07T11:35:01.977Z,20.51
2018-10-07T11:37:47.476Z,20.88
2018-10-07T11:40:26.195Z,21.01
2018-10-07T11:43:16.104Z,21.75
2018-10-07T11:45:48.725Z,21.68
2018-10-07T11:48:28.199Z,21.95
2018-10-07T11:51:05.273Z,22.52
2018-10-07T11:54:09.124Z,22.68
2018-10-07T11:56:36.731Z,22.91
2018-10-07T11:59:04.337Z,22.28
2018-10-07T12:01:31.671Z,22.09
2018-10-07T12:03:58.956Z,21.61
2018-10-07T12:06:26.313Z,21.23
2018-10-07T12:08:53.616Z,22.23
2018-10-07T12:11:20.920Z,22.52
2018-10-07T12:13:48.196Z,22.47
2018-10-07T12:16:15.554Z,22.79
2018-10-07T12:18:42.943Z,22.42
2018-10-07T12:21:10.312Z,22.85
2018-10-07T12:23:37.679Z,22.92
2018-10-07T12:26:04.964Z,22.79
2018-10-07T12:28:32.292Z,22.34
2018-10-07T12:30:59.605Z,23.15
2018-10-07T12:33:26.956Z,23.38
2018-10-07T12:35:54.252Z,23.50
2018-10-07T12:38:21.734Z,23.46
2018-10-07T12:40:49.065Z,23.33
2018-10-07T12:43:16.345Z,23.42
2018-10-07T12:45:43.649Z,23.31
2018-10-07T12:48:11.091Z,23.52
2018-10-07T12:50:38.495Z,23.77
2018-10-07T12:53:05.855Z,23.49
2018-10-07T12:55:33.324Z,23.36
2018-10-07T12:58:00.751Z,23.36
2018-10-07T13:00:28.060Z,23.12
2018-10-07T13:02:55.397Z,23.43
2018-10-07T13:05:22.780Z,23.67
2018-10-07T13:07:50.152Z,23.33
2018-10-07T13:10:17.487Z,23.57
2018-10-07T13:12:44.819Z,23.44
2018-10-07T13:15:12.146Z,23.23
2018-10-07T13:17:39.473Z,23.81
2018-10-07T13:20:06.830Z,23.82
2018-10-07T13:22:34.137Z,25.25
2018-10-07T13:25:01.569Z,24.74
2018-10-07T13:27:28.927Z,23.85
2018-10-07T13:29:56.303Z,24.79
2018-10-07T13:32:24.497Z,24.32
2018-10-07T13:34:51.787Z,24.00
2018-10-07T13:37:19.056Z,24.49
2018-10-07T13:39:46.398Z,23.67
2018-10-07T13:42:13.699Z,23.31
2018-10-07T13:44:41.005Z,23.38
2018-10-07T13:47:08.312Z,23.01
2018-10-07T13:49:35.650Z,23.07
2018-10-07T13:52:03.007Z,23.09
2018-10-07T13:54:30.416Z,23.35
2018-10-07T13:56:57.718Z,23.18
2018-10-07T13:59:24.995Z,23.44
2018-10-07T14:01:52.343Z,23.45
2018-10-07T14:04:19.635Z,23.29
2018-10-07T14:06:47.024Z,23.80
2018-10-07T14:09:14.294Z,23.65
2018-10-07T14:11:43.055Z,23.50
2018-10-07T14:14:10.381Z,23.38
2018-10-07T14:16:37.669Z,23.24
2018-10-07T14:19:04.971Z,23.37
2018-10-07T14:21:32.278Z,23.11
2018-10-07T14:23:59.605Z,23.98
2018-10-07T14:26:26.915Z,24.90
2018-10-07T14:28:54.247Z,24.58
2018-10-07T14:31:21.579Z,23.73
2018-10-07T14:33:48.892Z,23.63
2018-10-07T14:36:16.887Z,22.66
2018-10-07T14:38:44.125Z,22.58
2018-10-07T14:41:11.529Z,22.70
2018-10-07T14:43:38.795Z,23.09
2018-10-07T14:46:06.067Z,22.89
2018-10-07T14:48:33.631Z,23.08
2018-10-07T14:51:00.896Z,22.61
2018-10-07T14:53:28.258Z,23.22
2018-10-07T14:55:55.591Z,23.51
2018-10-07T14:58:22.949Z,23.10
2018-10-07T15:00:50.313Z,22.50
2018-10-07T15:03:17.606Z,22.57
2018-10-07T15:05:44.960Z,22.44
2018-10-07T15:08:12.286Z,22.88
2018-10-07T15:10:39.697Z,22.50
2018-10-07T15:13:07.067Z,21.97
2018-10-07T15:15:34.416Z,21.86
2018-10-07T15:18:01.691Z,21.92
2018-10-07T15:20:29.177Z,22.04
2018-10-07T15:22:56.495Z,21.79
2018-10-07T15:25:23.841Z,21.83
2018-10-07T15:27:51.219Z,21.75
2018-10-07T15:30:18.530Z,21.77
2018-10-07T15:32:45.826Z,21.97
2018-10-07T15:35:13.202Z,21.77
2018-10-07T15:37:40.488Z,21.64
2018-10-07T15:40:07.792Z,21.79
2018-10-07T15:42:35.136Z,21.97
2018-10-07T15:45:02.421Z,21.87
2018-10-07T15:47:29.807Z,21.79
2018-10-07T15:49:57.122Z,21.20
2018-10-07T15:52:24.450Z,21.37
2018-10-07T15:54:51.832Z,21.29
2018-10-07T15:57:19.150Z,21.21
2018-10-07T15:59:46.469Z,21.55
2018-10-07T16:02:13.893Z,20.82
2018-10-07T16:04:41.241Z,21.42
2018-10-07T16:07:08.566Z,21.28
2018-10-07T16:09:35.893Z,21.38
2018-10-07T16:12:03.221Z,20.93
2018-10-07T16:14:30.490Z,21.14
2018-10-07T16:16:57.841Z,21.17
2018-10-07T16:19:25.108Z,21.20
2018-10-07T16:21:52.429Z,21.15
2018-10-07T16:24:19.833Z,21.14
2018-10-07T16:26:47.228Z,20.93
2018-10-07T16:29:14.531Z,20.84
2018-10-07T16:31:41.836Z,20.80
2018-10-07T16:34:09.226Z,20.71
2018-10-07T16:36:36.502Z,20.62
2018-10-07T16:39:05.139Z,20.45
2018-10-07T16:41:33.429Z,20.28
2018-10-07T16:44:01.217Z,20.10
2018-10-07T16:46:28.561Z,19.97
2018-10-07T16:48:55.883Z,19.90
2018-10-07T16:51:23.157Z,19.82
2018-10-07T16:53:50.572Z,19.79
2018-10-07T16:56:17.836Z,19.76
2018-10-07T16:58:45.411Z,19.80
2018-10-07T17:01:12.693Z,19.67
2018-10-07T17:03:40.002Z,19.61
2018-10-07T17:06:07.354Z,19.66
2018-10-07T17:08:34.615Z,19.68
2018-10-07T17:11:01.958Z,19.51
2018-10-07T17:13:29.373Z,19.38
2018-10-07T17:15:56.600Z,19.20
2018-10-07T17:18:23.933Z,19.16
2018-10-07T17:20:51.212Z,18.95
2018-10-07T17:23:18.499Z,18.95
2018-10-07T17:25:45.781Z,18.77
2018-10-07T17:28:13.099Z,18.78
2018-10-07T17:30:43.921Z,19.04
2018-10-07T17:33:11.412Z,18.84
2018-10-07T17:35:39.013Z,18.89
2018-10-07T17:38:06.733Z,18.58
2018-10-07T17:40:34.029Z,18.50
2018-10-07T17:43:01.303Z,18.31
2018-10-07T17:45:28.611Z,18.28
2018-10-07T17:47:55.925Z,18.10
2018-10-07T17:50:23.230Z,18.10
2018-10-07T17:52:50.997Z,17.96
2018-10-07T17:55:18.289Z,17.95
2018-10-07T17:57:45.573Z,17.85
2018-10-07T18:00:13.619Z,17.70
2018-10-07T18:02:41.059Z,17.61
2018-10-07T18:05:08.520Z,17.58
2018-10-07T18:07:35.791Z,17.56
2018-10-07T18:10:03.088Z,17.54
2018-10-07T18:12:30.452Z,17.52
2018-10-07T18:14:57.771Z,17.36
2018-10-07T18:17:25.245Z,17.32
2018-10-07T18:19:52.538Z,17.39
2018-10-07T18:22:19.945Z,17.22
2018-10-07T18:24:47.204Z,17.25
2018-10-07T18:27:14.556Z,17.11
2018-10-07T18:29:41.870Z,17.15
2018-10-07T18:32:09.225Z,17.14
2018-10-07T18:34:36.612Z,17.18
2018-10-07T18:37:04.029Z,17.15
2018-10-07T18:39:31.353Z,17.08
2018-10-07T18:41:58.678Z,16.95
2018-10-07T18:44:25.954Z,16.99
2018-10-07T18:46:53.313Z,17.00
2018-10-07T18:49:20.679Z,16.93
2018-10-07T18:51:48.058Z,16.91
2018-10-07T18:54:15.347Z,16.74
2018-10-07T18:56:42.676Z,16.84
2018-10-07T18:59:09.949Z,16.79
2018-10-07T19:01:37.323Z,16.72
2018-10-07T19:04:04.661Z,16.74
2018-10-07T19:06:32.001Z,16.61
2018-10-07T19:08:59.295Z,16.56
2018-10-07T19:11:26.665Z,16.41
2018-10-07T19:13:54.009Z,16.42
2018-10-07T19:16:21.357Z,16.44
2018-10-07T19:18:48.785Z,16.54
2018-10-07T19:21:16.136Z,16.38
2018-10-07T19:23:43.525Z,16.27
2018-10-07T19:26:10.847Z,16.25
2018-10-07T19:28:38.186Z,16.19
2018-10-07T19:31:05.585Z,16.02
2018-10-07T19:33:32.920Z,16.12
2018-10-07T19:36:00.258Z,16.08
2018-10-07T19:38:27.558Z,15.98
2018-10-07T19:40:54.907Z,16.06
2018-10-07T19:43:22.213Z,15.91
2018-10-07T19:45:49.606Z,16.07
2018-10-07T19:48:16.933Z,15.98
2018-10-07T19:50:44.239Z,15.86
2018-10-07T19:53:11.616Z,15.79
2018-10-07T19:55:38.958Z,15.75
2018-10-07T19:58:06.296Z,15.82
2018-10-07T20:00:33.692Z,15.76
2018-10-07T20:03:01.097Z,15.80
2018-10-07T20:05:28.388Z,15.80
2018-10-07T20:07:55.726Z,15.72
2018-10-07T20:10:23.051Z,15.65
2018-10-07T20:12:50.378Z,15.50
2018-10-07T20:15:17.795Z,15.43
2018-10-07T20:17:45.080Z,15.28
2018-10-07T20:20:12.431Z,15.25
2018-10-07T20:22:39.774Z,15.29
2018-10-07T20:25:07.087Z,15.27
2018-10-07T20:27:34.410Z,15.18
2018-10-07T20:30:01.741Z,15.13
2018-10-07T20:32:29.030Z,14.49
2018-10-07T20:34:56.421Z,14.93
2018-10-07T20:37:23.715Z,15.03
2018-10-07T20:39:51.128Z,15.03
2018-10-07T20:42:18.537Z,14.97
2018-10-07T20:44:45.843Z,14.87
2018-10-07T20:47:13.185Z,14.93
2018-10-07T20:49:40.479Z,14.96
2018-10-07T20:52:07.853Z,14.90
2018-10-07T20:54:35.223Z,14.87
2018-10-07T20:57:02.604Z,14.89
2018-10-07T20:59:29.914Z,14.76
2018-10-07T21:01:57.279Z,14.81
2018-10-07T21:04:24.596Z,14.71
2018-10-07T21:06:51.959Z,14.64
2018-10-07T21:09:19.269Z,14.69
2018-10-07T21:11:46.647Z,14.79
2018-10-07T21:14:14.009Z,14.68
2018-10-07T21:16:41.364Z,14.57
2018-10-07T21:19:08.758Z,14.48
2018-10-07T21:21:36.098Z,14.47
2018-10-07T21:24:03.435Z,14.43
2018-10-07T21:26:30.796Z,14.47
2018-10-07T21:28:58.142Z,14.56
2018-10-07T21:31:25.458Z,14.52
2018-10-07T21:33:52.848Z,14.44
2018-10-07T21:36:20.280Z,14.32
2018-10-07T21:38:47.688Z,14.43
2018-10-07T21:41:14.976Z,14.35
2018-10-07T21:43:42.226Z,14.31
2018-10-07T21:46:09.788Z,14.30
2018-10-07T21:48:37.069Z,14.07
2018-10-07T21:51:04.441Z,14.32
2018-10-07T21:53:31.850Z,14.20
2018-10-07T21:55:59.276Z,14.22
2018-10-07T21:58:26.537Z,14.25
2018-10-07T22:00:53.839Z,14.26
2018-10-07T22:03:21.176Z,14.17
2018-10-07T22:05:48.496Z,14.19
2018-10-07T22:08:15.808Z,14.12
2018-10-07T22:10:43.095Z,13.81
2018-10-07T22:13:10.411Z,13.86
2018-10-07T22:15:37.705Z,13.95
2018-10-07T22:18:05.009Z,13.93
2018-10-07T22:20:32.333Z,13.86
2018-10-07T22:22:59.743Z,13.80
2018-10-07T22:25:27.040Z,13.76
2018-10-07T22:27:54.329Z,13.91
2018-10-07T22:30:21.979Z,13.81
2018-10-07T22:32:49.313Z,13.76
2018-10-07T22:35:16.607Z,13.74
2018-10-07T22:37:43.867Z,13.58
2018-10-07T22:40:11.174Z,13.60
2018-10-07T22:42:38.489Z,13.48
2018-10-07T22:45:05.914Z,13.47
2018-10-07T22:47:33.335Z,13.59
2018-10-07T22:50:00.599Z,13.49
2018-10-07T22:52:27.939Z,13.51
2018-10-07T22:54:55.252Z,13.50
2018-10-07T22:57:22.597Z,13.55
2018-10-07T22:59:49.870Z,13.54
2018-10-07T23:02:17.314Z,13.50
2018-10-07T23:04:44.578Z,13.49
2018-10-07T23:07:11.933Z,13.30
2018-10-07T23:09:39.223Z,13.43
2018-10-07T23:12:06.502Z,13.49
2018-10-07T23:14:33.892Z,13.44
2018-10-07T23:17:01.234Z,13.42
2018-10-07T23:19:28.576Z,13.35
2018-10-07T23:21:55.849Z,13.35
2018-10-07T23:24:23.133Z,13.24
2018-10-07T23:26:50.410Z,13.24
2018-10-07T23:29:17.700Z,13.22
2018-10-07T23:31:45.045Z,13.16
2018-10-07T23:34:12.297Z,13.19
2018-10-07T23:36:39.554Z,13.18
2018-10-07T23:39:08.175Z,13.10
2018-10-07T23:41:35.533Z,13.12
2018-10-07T23:44:02.961Z,12.77
2018-10-07T23:46:30.195Z,12.60
2018-10-07T23:48:57.522Z,12.95
2018-10-07T23:51:24.776Z,13.03
2018-10-07T23:53:52.111Z,13.06
2018-10-07T23:56:19.479Z,13.12
2018-10-07T23:58:46.814Z,13.01
